Time;durP1;ratioP1;P1;durP2;ratioP2;P2;SDS_P1;SDS_P2;PMS_P1;PMS_P2;Temp;Humidity;BMP_temperature;BMP_pressure;BME280_temperature;BME280_humidity;BME280_pressure;Samples;Min_cycle;Max_cycle;Signal;HPM_P1;HPM_P2
2021/06/09 00:01:27;;;;;;;15.05;13.27;;;;;;;;;;5056177;28;20112;-75
2021/06/09 00:03:53;;;;;;;16.23;12.48;;;;;;;;;;5054230;28;20033;-76
2021/06/09 00:06:18;;;;;;;17.73;12.38;;;;;;;;;;5051970;28;20044;-75
2021/06/09 00:08:44;;;;;;;18.17;12.02;;;;;;;;;;5056188;28;20037;-75
2021/06/09 00:11:09;;;;;;;15.32;11.88;;;;;;;;;;5056027;28;20064;-75
2021/06/09 00:13:35;;;;;;;13.23;11.27;;;;;;;;;;5056137;28;20041;-75
2021/06/09 00:16:07;;;;;;;14.77;12.05;;;;;;;;;;5056052;28;20033;-75
2021/06/09 00:18:32;;;;;;;14.80;11.48;;;;;;;;;;5055883;28;20471;-76
2021/06/09 00:20:58;;;;;;;17.05;10.95;;;;;;;;;;5054755;28;20072;-75
2021/06/09 00:23:27;;;;;;;12.05;10.52;;;;;;;;;;5055892;28;20121;-76
2021/06/09 00:25:54;;;;;;;15.50;11.50;;;;;;;;;;5055882;28;20479;-76
2021/06/09 00:28:20;;;;;;;14.43;10.55;;;;;;;;;;5054741;28;20043;-75
2021/06/09 00:30:46;;;;;;;19.38;11.45;;;;;;;;;;5054819;28;20037;-76
2021/06/09 00:33:11;;;;;;;14.20;11.52;;;;;;;;;;5055587;28;20462;-76
2021/06/09 00:35:37;;;;;;;14.88;11.35;;;;;;;;;;5049320;28;20040;-76
2021/06/09 00:38:05;;;;;;;12.93;11.52;;;;;;;;;;5041424;28;20509;-76
2021/06/09 00:40:32;;;;;;;16.35;11.95;;;;;;;;;;5035557;28;20487;-75
2021/06/09 00:43:18;;;;;;;19.02;13.80;;;;;;;;;;5035824;28;20096;-76
2021/06/09 00:45:53;;;;;;;17.45;14.38;;;;;;;;;;5035609;28;20049;-75
2021/06/09 00:48:19;;;;;;;18.27;14.02;;;;;;;;;;5033920;28;20562;-76
2021/06/09 00:50:44;;;;;;;15.98;13.18;;;;;;;;;;5035716;28;20065;-76
2021/06/09 00:53:28;;;;;;;19.10;13.98;;;;;;;;;;5034410;28;20083;-75
2021/06/09 00:56:00;;;;;;;18.05;13.02;;;;;;;;;;5035549;28;20033;-75
2021/06/09 00:58:26;;;;;;;14.18;12.48;;;;;;;;;;5035622;28;20037;-76
2021/06/09 01:00:52;;;;;;;16.45;11.38;;;;;;;;;;5034256;28;20099;-76
2021/06/09 01:03:18;;;;;;;16.80;11.88;;;;;;;;;;5041618;28;20025;-75
2021/06/09 01:05:44;;;;;;;17.60;12.80;;;;;;;;;;5047935;28;20033;-75
2021/06/09 01:08:09;;;;;;;16.20;12.30;;;;;;;;;;5041781;28;20041;-75
2021/06/09 01:10:35;;;;;;;20.58;13.73;;;;;;;;;;5035477;28;20029;-76
2021/06/09 01:13:01;;;;;;;16.25;13.13;;;;;;;;;;5046918;28;20032;-76
2021/06/09 01:15:28;;;;;;;15.32;13.02;;;;;;;;;;5034945;28;20091;-75
2021/06/09 01:17:54;;;;;;;14.05;12.65;;;;;;;;;;5047232;28;20421;-75
2021/06/09 01:20:21;;;;;;;19.25;12.82;;;;;;;;;;5036373;28;20518;-76
2021/06/09 01:22:47;;;;;;;15.93;12.00;;;;;;;;;;5033776;28;20139;-76
2021/06/09 01:25:14;;;;;;;18.48;14.18;;;;;;;;;;5035039;28;20443;-75
2021/06/09 01:27:40;;;;;;;19.83;15.13;;;;;;;;;;5035024;28;20041;-76
2021/06/09 01:30:11;;;;;;;18.17;15.52;;;;;;;;;;5035115;28;20048;-75
2021/06/09 01:32:37;;;;;;;20.27;15.55;;;;;;;;;;5034474;28;20033;-75
2021/06/09 01:35:04;;;;;;;20.92;16.13;;;;;;;;;;5054673;28;20174;-76
2021/06/09 01:37:31;;;;;;;19.48;15.77;;;;;;;;;;5053360;28;20497;-75
2021/06/09 01:39:59;;;;;;;18.00;14.20;;;;;;;;;;5045228;28;20044;-76
2021/06/09 01:42:26;;;;;;;14.55;12.18;;;;;;;;;;5046205;28;20124;-76
2021/06/09 01:44:52;;;;;;;16.48;13.25;;;;;;;;;;5034677;28;20033;-75
2021/06/09 01:47:18;;;;;;;15.45;11.82;;;;;;;;;;5034172;28;20041;-75
2021/06/09 01:49:43;;;;;;;16.80;12.27;;;;;;;;;;5034615;28;20120;-76
2021/06/09 01:52:09;;;;;;;14.27;12.77;;;;;;;;;;5034471;28;20038;-75
2021/06/09 01:54:35;;;;;;;23.35;14.18;;;;;;;;;;5034423;28;20068;-75
2021/06/09 01:57:01;;;;;;;23.88;14.73;;;;;;;;;;5034416;28;20080;-75
2021/06/09 01:59:27;;;;;;;18.35;13.18;;;;;;;;;;5033207;28;20029;-75
2021/06/09 02:01:52;;;;;;;18.45;13.95;;;;;;;;;;5032096;28;20025;-76
2021/06/09 02:04:18;;;;;;;17.13;14.27;;;;;;;;;;5049241;28;20426;-75
2021/06/09 02:06:45;;;;;;;19.02;14.68;;;;;;;;;;5052898;28;20072;-75
2021/06/09 02:09:12;;;;;;;18.25;14.90;;;;;;;;;;5053375;28;20068;-75
2021/06/09 02:11:39;;;;;;;19.98;15.23;;;;;;;;;;5044915;28;20037;-76
2021/06/09 02:14:06;;;;;;;20.85;15.73;;;;;;;;;;5034603;28;20033;-75
2021/06/09 02:16:36;;;;;;;21.05;15.82;;;;;;;;;;5045714;28;20375;-75
2021/06/09 02:19:03;;;;;;;17.73;15.13;;;;;;;;;;5032646;28;20025;-74
2021/06/09 02:21:28;;;;;;;17.42;14.05;;;;;;;;;;5033962;28;20095;-74
2021/06/09 02:23:54;;;;;;;19.48;13.10;;;;;;;;;;5034011;28;20037;-74
2021/06/09 02:26:19;;;;;;;19.60;13.25;;;;;;;;;;5033978;28;20029;-74
2021/06/09 02:28:45;;;;;;;17.92;13.80;;;;;;;;;;5038137;28;20542;-74
2021/06/09 02:31:16;;;;;;;18.60;13.75;;;;;;;;;;5044130;28;20034;-73
2021/06/09 02:33:42;;;;;;;22.30;12.85;;;;;;;;;;5043160;28;20033;-75
2021/06/09 02:36:08;;;;;;;15.70;12.82;;;;;;;;;;5036891;28;20090;-74
2021/06/09 02:38:40;;;;;;;25.45;12.65;;;;;;;;;;5042878;28;20045;-74
2021/06/09 02:41:06;;;;;;;16.65;11.73;;;;;;;;;;5044644;28;20050;-74
2021/06/09 02:43:32;;;;;;;23.15;12.40;;;;;;;;;;5037447;28;20056;-74
2021/06/09 02:46:09;;;;;;;18.05;11.95;;;;;;;;;;5044462;28;20095;-74
2021/06/09 02:48:38;;;;;;;20.40;15.85;;;;;;;;;;5043888;28;20056;-74
2021/06/09 02:51:03;;;;;;;15.95;13.68;;;;;;;;;;5034086;28;20044;-74
2021/06/09 02:53:33;;;;;;;15.63;12.95;;;;;;;;;;5045630;28;20029;-75
2021/06/09 02:56:12;;;;;;;20.33;13.25;;;;;;;;;;5038160;28;20033;-73
2021/06/09 02:59:02;;;;;;;15.85;12.57;;;;;;;;;;5037332;28;20030;-74
2021/06/09 03:01:36;;;;;;;16.38;13.07;;;;;;;;;;5033320;28;20040;-73
2021/06/09 03:04:17;;;;;;;13.85;11.98;;;;;;;;;;5045866;28;20547;-74
2021/06/09 03:07:19;;;;;;;18.33;13.77;;;;;;;;;;5053147;28;20039;-73
2021/06/09 03:10:04;;;;;;;14.13;12.60;;;;;;;;;;5051184;28;20154;-74
2021/06/09 03:12:41;;;;;;;17.23;12.73;;;;;;;;;;5041833;28;20029;-74
2021/06/09 03:15:11;;;;;;;16.77;12.32;;;;;;;;;;5032866;28;20372;-74
2021/06/09 03:17:44;;;;;;;20.63;13.02;;;;;;;;;;5032889;28;20060;-74
2021/06/09 03:20:28;;;;;;;15.50;11.07;;;;;;;;;;5033088;28;20026;-74
2021/06/09 03:23:03;;;;;;;15.73;12.35;;;;;;;;;;5032980;28;20037;-74
2021/06/09 03:25:48;;;;;;;14.15;11.30;;;;;;;;;;5031763;28;20056;-74
2021/06/09 03:28:21;;;;;;;18.85;12.35;;;;;;;;;;5035428;28;20049;-74
2021/06/09 03:30:53;;;;;;;12.10;10.55;;;;;;;;;;5036645;28;20048;-74
2021/06/09 03:33:20;;;;;;;16.95;11.68;;;;;;;;;;5043740;28;20041;-74
2021/06/09 03:35:52;;;;;;;12.98;11.20;;;;;;;;;;5056735;28;20037;-74
2021/06/09 03:38:31;;;;;;;13.00;10.93;;;;;;;;;;5056954;28;20037;-74
2021/06/09 03:41:04;;;;;;;14.82;12.48;;;;;;;;;;5052375;28;20151;-74
2021/06/09 03:43:32;;;;;;;13.07;11.68;;;;;;;;;;5045526;28;20471;-74
2021/06/09 03:45:59;;;;;;;13.20;10.73;;;;;;;;;;5046639;28;20033;-74
2021/06/09 03:48:29;;;;;;;14.02;12.30;;;;;;;;;;5039474;28;20487;-74
2021/06/09 03:50:57;;;;;;;13.10;10.57;;;;;;;;;;5036813;28;20033;-74
2021/06/09 03:53:24;;;;;;;15.80;12.52;;;;;;;;;;5039737;28;20045;-74
2021/06/09 03:55:51;;;;;;;13.15;11.07;;;;;;;;;;5045474;28;20037;-74
2021/06/09 03:58:18;;;;;;;12.40;10.57;;;;;;;;;;5036466;28;20037;-74
2021/06/09 04:00:45;;;;;;;17.77;11.40;;;;;;;;;;5036629;28;20029;-74
2021/06/09 04:03:12;;;;;;;12.57;9.85;;;;;;;;;;5042047;28;20517;-74
2021/06/09 04:05:41;;;;;;;14.52;11.02;;;;;;;;;;5055444;28;20021;-74
2021/06/09 04:08:11;;;;;;;16.95;11.57;;;;;;;;;;5055364;28;20425;-74
2021/06/09 04:10:37;;;;;;;14.43;11.32;;;;;;;;;;5054174;28;20598;-74
2021/06/09 04:13:03;;;;;;;15.68;11.13;;;;;;;;;;5047122;28;20141;-74
2021/06/09 04:15:29;;;;;;;16.58;11.13;;;;;;;;;;5039853;28;20116;-74
2021/06/09 04:17:56;;;;;;;13.88;11.10;;;;;;;;;;5035816;28;20060;-74
2021/06/09 04:20:27;;;;;;;17.33;13.10;;;;;;;;;;5036450;28;20041;-74
2021/06/09 04:22:54;;;;;;;19.40;13.13;;;;;;;;;;5036497;28;20116;-74
2021/06/09 04:25:20;;;;;;;15.18;13.02;;;;;;;;;;5035866;28;20063;-74
2021/06/09 04:27:47;;;;;;;15.20;12.40;;;;;;;;;;5036119;28;20079;-74
2021/06/09 04:30:16;;;;;;;13.90;11.90;;;;;;;;;;5036052;28;20037;-74
2021/06/09 04:32:48;;;;;;;22.23;16.65;;;;;;;;;;5037080;28;20033;-74
2021/06/09 04:35:14;;;;;;;25.83;17.67;;;;;;;;;;5055579;28;20033;-74
2021/06/09 04:37:39;;;;;;;22.42;17.15;;;;;;;;;;5055795;28;20585;-74
2021/06/09 04:40:06;;;;;;;18.77;15.43;;;;;;;;;;5055769;28;20041;-74
2021/06/09 04:42:31;;;;;;;16.60;14.10;;;;;;;;;;5052110;28;20038;-74
2021/06/09 04:44:57;;;;;;;21.25;15.75;;;;;;;;;;5046782;28;20172;-74
2021/06/09 04:47:29;;;;;;;20.02;14.25;;;;;;;;;;5035602;28;20127;-74
2021/06/09 04:49:54;;;;;;;19.30;13.65;;;;;;;;;;5034446;28;20140;-74
2021/06/09 04:52:20;;;;;;;19.38;13.85;;;;;;;;;;5037928;28;20117;-74
2021/06/09 04:54:45;;;;;;;15.32;13.02;;;;;;;;;;5046257;28;20034;-74
2021/06/09 04:57:11;;;;;;;23.10;14.80;;;;;;;;;;5035515;28;20130;-74
2021/06/09 04:59:36;;;;;;;21.52;13.50;;;;;;;;;;5035508;28;20037;-74
2021/06/09 05:02:02;;;;;;;18.65;13.77;;;;;;;;;;5035626;28;20022;-74
2021/06/09 05:04:28;;;;;;;23.45;15.50;;;;;;;;;;5051684;28;20474;-74
2021/06/09 05:06:53;;;;;;;18.65;15.40;;;;;;;;;;5055232;28;20386;-74
2021/06/09 05:09:18;;;;;;;24.38;16.63;;;;;;;;;;5055299;28;20434;-74
2021/06/09 05:12:12;;;;;;;19.67;14.80;;;;;;;;;;5046799;28;20033;-74
2021/06/09 05:14:47;;;;;;;22.38;13.77;;;;;;;;;;5052874;28;20037;-74
2021/06/09 05:17:16;;;;;;;17.47;14.97;;;;;;;;;;5047059;28;20083;-74
2021/06/09 05:19:42;;;;;;;19.05;14.27;;;;;;;;;;5043943;28;20765;-74
2021/06/09 05:22:21;;;;;;;20.15;16.20;;;;;;;;;;5046069;28;20044;-74
2021/06/09 05:24:48;;;;;;;21.35;15.27;;;;;;;;;;5033909;28;20487;-74
2021/06/09 05:27:22;;;;;;;19.05;14.45;;;;;;;;;;5037280;28;20064;-74
2021/06/09 05:29:49;;;;;;;15.55;13.85;;;;;;;;;;5046788;28;20033;-74
2021/06/09 05:32:15;;;;;;;17.52;13.02;;;;;;;;;;5054590;28;20041;-74
2021/06/09 05:34:42;;;;;;;22.55;14.98;;;;;;;;;;5051472;28;20032;-74
2021/06/09 05:37:14;;;;;;;19.65;15.25;;;;;;;;;;5044175;28;20132;-74
2021/06/09 05:39:40;;;;;;;17.52;13.50;;;;;;;;;;5035971;28;20520;-74
2021/06/09 05:42:07;;;;;;;19.25;14.52;;;;;;;;;;5046577;28;20036;-74
2021/06/09 05:44:33;;;;;;;20.50;14.30;;;;;;;;;;5036795;28;20053;-74
2021/06/09 05:47:00;;;;;;;16.38;13.38;;;;;;;;;;5044179;28;20041;-74
2021/06/09 05:49:25;;;;;;;20.15;15.00;;;;;;;;;;5039876;28;20356;-74
2021/06/09 05:51:52;;;;;;;18.92;14.38;;;;;;;;;;5042485;28;20036;-74
2021/06/09 05:54:19;;;;;;;16.75;13.70;;;;;;;;;;5045698;28;20037;-74
2021/06/09 05:56:45;;;;;;;21.98;14.40;;;;;;;;;;5051168;28;20040;-74
2021/06/09 05:59:13;;;;;;;19.48;14.05;;;;;;;;;;5054283;28;20467;-74
2021/06/09 06:01:42;;;;;;;22.77;15.07;;;;;;;;;;5041621;28;20045;-73
2021/06/09 06:04:08;;;;;;;24.85;14.57;;;;;;;;;;5047948;28;20036;-73
2021/06/09 06:06:34;;;;;;;18.10;13.52;;;;;;;;;;5054393;28;20400;-73
2021/06/09 06:08:59;;;;;;;20.35;15.15;;;;;;;;;;5054164;28;20103;-73
2021/06/09 06:11:25;;;;;;;28.50;19.15;;;;;;;;;;5054182;28;20112;-73
2021/06/09 06:13:51;;;;;;;31.20;20.17;;;;;;;;;;5035989;28;20028;-73
2021/06/09 06:16:19;;;;;;;23.77;17.15;;;;;;;;;;5053562;28;20087;-73
2021/06/09 06:18:48;;;;;;;19.98;15.98;;;;;;;;;;5053505;28;20037;-73
2021/06/09 06:21:15;;;;;;;19.80;15.75;;;;;;;;;;5052850;28;20037;-74
2021/06/09 06:23:42;;;;;;;21.30;15.15;;;;;;;;;;5053877;28;20043;-73
2021/06/09 06:26:10;;;;;;;25.05;15.77;;;;;;;;;;5052521;28;20041;-73
2021/06/09 06:28:38;;;;;;;20.63;14.65;;;;;;;;;;5053720;28;20056;-73
2021/06/09 06:31:04;;;;;;;17.55;13.45;;;;;;;;;;5053458;28;20028;-73
2021/06/09 06:33:30;;;;;;;29.15;15.65;;;;;;;;;;5053176;28;20474;-73
2021/06/09 06:35:58;;;;;;;19.90;13.80;;;;;;;;;;5052098;28;20109;-73
2021/06/09 06:38:24;;;;;;;19.80;12.07;;;;;;;;;;5052266;28;20040;-73
2021/06/09 06:40:50;;;;;;;17.20;13.43;;;;;;;;;;5053490;28;20041;-73
2021/06/09 06:43:16;;;;;;;20.10;13.20;;;;;;;;;;5052023;28;20044;-73
2021/06/09 06:45:43;;;;;;;13.60;11.25;;;;;;;;;;5053257;28;20075;-73
2021/06/09 06:48:09;;;;;;;23.65;15.10;;;;;;;;;;5053303;28;20061;-73
2021/06/09 06:50:37;;;;;;;23.98;15.77;;;;;;;;;;5053546;28;20044;-72
2021/06/09 06:53:06;;;;;;;23.65;13.98;;;;;;;;;;5053651;28;20035;-74
2021/06/09 06:55:31;;;;;;;20.35;14.05;;;;;;;;;;5053262;28;20036;-74
2021/06/09 06:57:58;;;;;;;16.38;12.73;;;;;;;;;;5053186;28;20029;-75
2021/06/09 07:00:24;;;;;;;17.10;11.82;;;;;;;;;;5051314;28;20036;-75
2021/06/09 07:02:52;;;;;;;14.65;12.13;;;;;;;;;;5052164;28;20120;-76
2021/06/09 07:05:20;;;;;;;13.50;10.38;;;;;;;;;;5053580;28;20052;-75
2021/06/09 07:07:46;;;;;;;12.77;8.45;;;;;;;;;;5053210;28;20116;-74
2021/06/09 07:10:14;;;;;;;15.93;9.85;;;;;;;;;;5051232;28;20076;-74
2021/06/09 07:12:41;;;;;;;11.07;8.20;;;;;;;;;;5053008;28;20033;-74
2021/06/09 07:15:12;;;;;;;13.00;8.00;;;;;;;;;;5052582;28;20033;-74
2021/06/09 07:17:39;;;;;;;18.20;9.30;;;;;;;;;;5052309;28;20033;-74
2021/06/09 07:20:10;;;;;;;11.13;7.70;;;;;;;;;;5052707;28;20095;-75
2021/06/09 07:22:37;;;;;;;10.98;7.75;;;;;;;;;;5052977;28;20041;-74
2021/06/09 07:25:04;;;;;;;13.65;6.95;;;;;;;;;;5052066;28;20033;-75
2021/06/09 07:27:34;;;;;;;10.38;7.40;;;;;;;;;;5052216;28;20390;-73
2021/06/09 07:30:00;;;;;;;10.18;8.02;;;;;;;;;;5052657;28;20033;-72
2021/06/09 07:32:26;;;;;;;12.25;6.68;;;;;;;;;;5053008;28;20043;-72
2021/06/09 07:34:52;;;;;;;8.55;6.22;;;;;;;;;;5050696;28;20044;-73
2021/06/09 07:37:20;;;;;;;11.40;7.20;;;;;;;;;;5052420;28;20029;-73
2021/06/09 07:39:52;;;;;;;11.65;7.45;;;;;;;;;;5052956;28;20043;-73
2021/06/09 07:42:19;;;;;;;11.32;8.30;;;;;;;;;;5052292;28;20046;-75
2021/06/09 07:44:56;;;;;;;13.85;7.22;;;;;;;;;;5051776;28;20407;-75
2021/06/09 07:47:22;;;;;;;13.32;7.50;;;;;;;;;;5052724;28;20040;-74
2021/06/09 07:49:50;;;;;;;10.70;7.32;;;;;;;;;;5052231;28;20039;-74
2021/06/09 07:52:19;;;;;;;9.02;6.35;;;;;;;;;;5052674;28;20040;-74
2021/06/09 07:54:45;;;;;;;11.48;6.63;;;;;;;;;;5052498;28;20029;-74
2021/06/09 07:57:11;;;;;;;8.15;6.38;;;;;;;;;;5052807;28;20056;-74
2021/06/09 07:59:38;;;;;;;11.05;7.50;;;;;;;;;;5052738;28;20459;-76
2021/06/09 08:02:04;;;;;;;10.77;7.15;;;;;;;;;;5052360;28;20037;-74
2021/06/09 08:04:30;;;;;;;16.92;8.07;;;;;;;;;;5052146;28;20017;-74
2021/06/09 08:06:56;;;;;;;13.25;8.52;;;;;;;;;;5052158;28;20029;-74
2021/06/09 08:09:21;;;;;;;14.57;7.30;;;;;;;;;;5052611;28;20059;-74
2021/06/09 08:11:47;;;;;;;13.52;7.45;;;;;;;;;;5051755;28;20475;-75
2021/06/09 08:14:16;;;;;;;13.68;7.05;;;;;;;;;;5049360;28;20033;-74
2021/06/09 08:16:43;;;;;;;11.02;7.85;;;;;;;;;;5048999;28;20474;-74
2021/06/09 08:19:08;;;;;;;16.73;8.15;;;;;;;;;;5035725;28;20496;-73
2021/06/09 08:21:35;;;;;;;12.75;7.13;;;;;;;;;;5036128;28;20041;-74
2021/06/09 08:24:01;;;;;;;12.88;6.55;;;;;;;;;;5036140;28;20055;-74
2021/06/09 08:26:27;;;;;;;10.00;7.38;;;;;;;;;;5035992;28;20523;-73
2021/06/09 08:28:54;;;;;;;10.77;7.07;;;;;;;;;;5045280;28;20032;-74
2021/06/09 08:31:30;;;;;;;8.52;6.63;;;;;;;;;;5045234;28;20079;-74
2021/06/09 08:33:58;;;;;;;10.60;6.55;;;;;;;;;;5043574;28;20418;-74
2021/06/09 08:36:24;;;;;;;9.65;6.10;;;;;;;;;;5044087;28;20041;-72
2021/06/09 08:38:53;;;;;;;7.82;5.60;;;;;;;;;;5043064;28;20454;-73
2021/06/09 08:41:21;;;;;;;9.60;6.03;;;;;;;;;;5045406;28;20033;-74
2021/06/09 08:43:48;;;;;;;8.98;5.50;;;;;;;;;;5045581;28;20077;-73
2021/06/09 08:46:15;;;;;;;10.18;5.40;;;;;;;;;;5047136;28;20421;-73
2021/06/09 08:48:44;;;;;;;11.63;5.85;;;;;;;;;;5055226;28;20037;-73
2021/06/09 08:51:12;;;;;;;11.73;6.38;;;;;;;;;;5054559;28;20036;-73
2021/06/09 08:53:47;;;;;;;10.68;8.07;;;;;;;;;;5055523;28;20090;-73
2021/06/09 08:56:13;;;;;;;11.77;6.30;;;;;;;;;;5055294;28;20124;-73
2021/06/09 08:58:40;;;;;;;16.05;6.63;;;;;;;;;;5055249;28;20120;-73
2021/06/09 09:01:08;;;;;;;9.40;5.95;;;;;;;;;;5055361;28;20037;-73
2021/06/09 09:03:37;;;;;;;9.57;5.68;;;;;;;;;;5055103;28;20044;-73
2021/06/09 09:06:04;;;;;;;13.35;6.93;;;;;;;;;;5055366;28;20037;-73
2021/06/09 09:08:30;;;;;;;11.20;5.82;;;;;;;;;;5055309;28;20040;-73
2021/06/09 09:10:56;;;;;;;8.88;6.32;;;;;;;;;;5055099;28;20497;-73
2021/06/09 09:13:24;;;;;;;8.93;5.38;;;;;;;;;;5055028;28;20033;-73
2021/06/09 09:15:49;;;;;;;6.32;4.68;;;;;;;;;;5053805;28;20036;-74
2021/06/09 09:18:14;;;;;;;8.90;5.20;;;;;;;;;;5054792;28;20098;-74
2021/06/09 09:20:46;;;;;;;7.82;5.35;;;;;;;;;;5055087;28;20090;-74
2021/06/09 09:23:26;;;;;;;10.75;5.75;;;;;;;;;;5054960;28;20402;-75
2021/06/09 09:25:54;;;;;;;7.20;5.40;;;;;;;;;;5054170;28;20033;-73
2021/06/09 09:28:30;;;;;;;13.65;5.70;;;;;;;;;;5054872;28;20094;-74
2021/06/09 09:31:13;;;;;;;7.93;5.53;;;;;;;;;;5054534;28;20037;-73
2021/06/09 09:33:39;;;;;;;10.57;5.60;;;;;;;;;;5054677;28;20119;-74
2021/06/09 09:36:26;;;;;;;7.88;6.25;;;;;;;;;;5054650;28;20128;-73
2021/06/09 09:38:52;;;;;;;6.72;5.30;;;;;;;;;;5054673;28;20036;-73
2021/06/09 09:41:19;;;;;;;14.35;6.18;;;;;;;;;;5054764;28;20072;-74
2021/06/09 09:43:51;;;;;;;12.52;5.22;;;;;;;;;;5053479;28;20123;-77
2021/06/09 09:46:35;;;;;;;8.30;5.15;;;;;;;;;;5056873;28;20033;-78
2021/06/09 09:49:09;;;;;;;7.72;5.30;;;;;;;;;;5055591;28;20045;-77
2021/06/09 09:51:47;;;;;;;8.65;6.13;;;;;;;;;;5055106;28;20048;-78
2021/06/09 09:54:14;;;;;;;8.73;6.10;;;;;;;;;;5053866;28;20041;-78
2021/06/09 09:56:40;;;;;;;9.02;6.00;;;;;;;;;;5052859;28;20037;-77
2021/06/09 09:59:08;;;;;;;6.53;5.00;;;;;;;;;;5047710;28;20029;-78
2021/06/09 10:01:36;;;;;;;11.32;5.10;;;;;;;;;;5043629;28;20033;-77
2021/06/09 10:04:04;;;;;;;6.18;4.78;;;;;;;;;;5044992;28;20110;-77
2021/06/09 10:06:32;;;;;;;7.00;4.65;;;;;;;;;;5044293;28;20506;-77
2021/06/09 10:09:19;;;;;;;7.53;4.97;;;;;;;;;;5043429;28;20037;-77
2021/06/09 10:11:49;;;;;;;9.85;5.20;;;;;;;;;;5045327;28;20092;-77
2021/06/09 10:14:25;;;;;;;6.47;4.72;;;;;;;;;;5046438;28;20037;-78
2021/06/09 10:17:17;;;;;;;6.85;4.30;;;;;;;;;;5045676;28;20033;-75
2021/06/09 10:19:58;;;;;;;10.55;4.95;;;;;;;;;;5052809;28;20025;-80
2021/06/09 10:22:30;;;;;;;6.25;3.75;;;;;;;;;;5044594;28;20445;-77
2021/06/09 10:25:17;;;;;;;5.07;3.80;;;;;;;;;;5044624;28;20357;-77
2021/06/09 10:27:53;;;;;;;11.45;4.50;;;;;;;;;;5042173;28;20049;-77
2021/06/09 10:30:28;;;;;;;4.93;3.88;;;;;;;;;;5045527;28;20037;-77
2021/06/09 10:32:57;;;;;;;7.97;4.90;;;;;;;;;;5045704;28;20048;-78
2021/06/09 10:35:26;;;;;;;5.10;4.45;;;;;;;;;;5045724;28;20102;-76
2021/06/09 10:37:53;;;;;;;5.15;4.15;;;;;;;;;;5043686;28;20044;-78
2021/06/09 10:40:21;;;;;;;6.60;4.47;;;;;;;;;;5045157;28;20446;-75
2021/06/09 10:42:49;;;;;;;7.25;5.32;;;;;;;;;;5041711;28;20410;-75
2021/06/09 10:45:18;;;;;;;8.73;5.25;;;;;;;;;;5043316;28;20156;-75
2021/06/09 10:47:46;;;;;;;7.82;5.43;;;;;;;;;;5041836;28;20029;-74
2021/06/09 10:50:14;;;;;;;6.47;5.20;;;;;;;;;;5044604;28;20549;-76
2021/06/09 10:52:40;;;;;;;7.30;5.32;;;;;;;;;;5044367;28;20039;-75
2021/06/09 10:55:09;;;;;;;8.90;5.57;;;;;;;;;;5054149;28;20475;-78
2021/06/09 10:57:36;;;;;;;9.73;5.40;;;;;;;;;;5053629;28;20524;-76
2021/06/09 11:00:04;;;;;;;8.43;5.15;;;;;;;;;;5053722;28;20388;-77
2021/06/09 11:02:30;;;;;;;12.05;5.55;;;;;;;;;;5053884;28;20076;-76
2021/06/09 11:05:01;;;;;;;8.00;5.07;;;;;;;;;;5053851;28;20048;-76
2021/06/09 11:07:34;;;;;;;6.90;4.88;;;;;;;;;;5052980;28;20033;-76
2021/06/09 11:10:04;;;;;;;10.25;4.82;;;;;;;;;;5054185;28;20131;-77
2021/06/09 11:12:30;;;;;;;9.50;4.72;;;;;;;;;;5054073;28;20052;-78
2021/06/09 11:14:58;;;;;;;10.82;5.30;;;;;;;;;;5054122;28;20052;-77
2021/06/09 11:17:48;;;;;;;9.00;5.55;;;;;;;;;;5051605;28;20016;-77
2021/06/09 11:20:19;;;;;;;7.00;5.25;;;;;;;;;;5038799;28;20140;-76
2021/06/09 11:22:53;;;;;;;9.40;5.25;;;;;;;;;;5043206;28;20402;-77
2021/06/09 11:25:33;;;;;;;8.02;6.03;;;;;;;;;;5052874;28;20037;-77
2021/06/09 11:28:18;;;;;;;7.38;6.13;;;;;;;;;;5053020;28;20055;-77
2021/06/09 11:30:52;;;;;;;10.18;6.30;;;;;;;;;;5043852;28;20406;-76
2021/06/09 11:33:41;;;;;;;12.88;5.55;;;;;;;;;;5042351;28;20044;-75
2021/06/09 11:36:28;;;;;;;10.05;5.50;;;;;;;;;;5047515;28;20078;-76
2021/06/09 11:38:59;;;;;;;12.27;5.93;;;;;;;;;;5052923;28;20383;-76
2021/06/09 11:41:43;;;;;;;9.65;5.40;;;;;;;;;;5052637;28;20548;-76
2021/06/09 11:44:30;;;;;;;10.90;5.50;;;;;;;;;;5052430;28;20059;-76
2021/06/09 11:47:22;;;;;;;8.85;5.82;;;;;;;;;;5052447;28;20124;-76
2021/06/09 11:49:49;;;;;;;8.50;5.35;;;;;;;;;;5055019;28;20041;-76
2021/06/09 11:52:16;;;;;;;6.50;4.85;;;;;;;;;;5054617;28;20040;-76
2021/06/09 11:54:41;;;;;;;9.48;5.53;;;;;;;;;;5055585;28;20402;-76
2021/06/09 11:57:18;;;;;;;10.27;5.88;;;;;;;;;;5056719;28;20029;-76
2021/06/09 11:59:45;;;;;;;10.98;5.70;;;;;;;;;;5038413;28;20128;-77
2021/06/09 12:02:21;;;;;;;9.20;5.80;;;;;;;;;;5056356;28;20063;-76
2021/06/09 12:04:49;;;;;;;7.38;5.20;;;;;;;;;;5056223;28;20056;-76
2021/06/09 12:07:30;;;;;;;7.50;6.00;;;;;;;;;;5056263;28;20438;-76
2021/06/09 12:10:02;;;;;;;16.40;6.68;;;;;;;;;;5056269;28;20036;-77
2021/06/09 12:12:30;;;;;;;10.77;6.00;;;;;;;;;;5056082;28;20402;-77
2021/06/09 12:14:57;;;;;;;8.00;6.28;;;;;;;;;;5056186;28;20033;-77
2021/06/09 12:17:29;;;;;;;8.82;6.50;;;;;;;;;;5056033;28;20048;-76
2021/06/09 12:20:15;;;;;;;8.55;6.07;;;;;;;;;;5056223;28;20028;-76
2021/06/09 12:22:49;;;;;;;9.45;5.47;;;;;;;;;;5047515;28;20506;-77
2021/06/09 12:25:37;;;;;;;6.72;6.00;;;;;;;;;;5047100;28;20353;-76
2021/06/09 12:28:04;;;;;;;10.25;6.68;;;;;;;;;;5036195;28;20434;-76
2021/06/09 12:30:31;;;;;;;9.13;6.00;;;;;;;;;;5036269;28;20037;-76
2021/06/09 12:32:56;;;;;;;10.00;6.40;;;;;;;;;;5039776;28;20132;-76
2021/06/09 12:35:22;;;;;;;14.75;6.70;;;;;;;;;;5055746;28;20689;-76
2021/06/09 12:37:53;;;;;;;7.18;5.90;;;;;;;;;;5054686;28;20491;-76
2021/06/09 12:40:23;;;;;;;9.98;6.22;;;;;;;;;;5055707;28;20040;-76
2021/06/09 12:42:50;;;;;;;7.38;5.82;;;;;;;;;;5037832;28;20048;-76
2021/06/09 12:45:16;;;;;;;9.88;5.93;;;;;;;;;;5055789;28;20422;-77
2021/06/09 12:47:43;;;;;;;6.68;5.43;;;;;;;;;;5054103;28;20071;-77
2021/06/09 12:50:25;;;;;;;7.63;5.28;;;;;;;;;;5054492;28;20040;-78
2021/06/09 12:52:59;;;;;;;12.55;5.90;;;;;;;;;;5051665;28;20072;-78
2021/06/09 12:55:33;;;;;;;15.32;6.80;;;;;;;;;;5055172;28;20421;-76
2021/06/09 12:58:02;;;;;;;18.42;7.30;;;;;;;;;;5061936;28;20037;-76
2021/06/09 13:00:40;;;;;;;9.35;7.45;;;;;;;;;;5061962;28;20445;-77
2021/06/09 13:03:13;;;;;;;10.02;6.93;;;;;;;;;;5061406;28;20029;-79
2021/06/09 13:05:40;;;;;;;10.65;6.78;;;;;;;;;;5053779;28;20035;-78
2021/06/09 13:08:08;;;;;;;10.15;6.00;;;;;;;;;;5049837;28;20038;-79
2021/06/09 13:10:33;;;;;;;10.20;6.05;;;;;;;;;;5040640;28;20044;-78
2021/06/09 13:12:59;;;;;;;18.15;6.00;;;;;;;;;;5050509;28;20029;-78
2021/06/09 13:15:24;;;;;;;14.30;6.88;;;;;;;;;;5047039;28;20033;-78
2021/06/09 13:17:50;;;;;;;9.82;6.55;;;;;;;;;;5046279;28;20037;-78
2021/06/09 13:20:16;;;;;;;13.30;7.03;;;;;;;;;;5043286;28;20087;-78
2021/06/09 13:22:47;;;;;;;11.98;7.40;;;;;;;;;;5045058;28;20044;-78
2021/06/09 13:25:14;;;;;;;8.63;5.97;;;;;;;;;;5039107;28;20578;-78
2021/06/09 13:27:41;;;;;;;10.98;5.78;;;;;;;;;;5045342;28;20119;-78
2021/06/09 13:30:08;;;;;;;7.55;5.43;;;;;;;;;;5050411;28;20037;-78
2021/06/09 13:32:35;;;;;;;8.50;4.32;;;;;;;;;;5036752;28;20375;-78
2021/06/09 13:35:05;;;;;;;8.55;5.10;;;;;;;;;;5057537;28;20028;-78
2021/06/09 13:37:36;;;;;;;6.72;5.57;;;;;;;;;;5057350;28;20479;-78
2021/06/09 13:40:22;;;;;;;10.05;4.78;;;;;;;;;;5056945;28;20094;-78
2021/06/09 13:43:07;;;;;;;7.82;4.70;;;;;;;;;;5057045;28;20045;-78
2021/06/09 13:45:37;;;;;;;5.90;4.95;;;;;;;;;;5052866;28;20399;-78
2021/06/09 13:48:16;;;;;;;8.10;4.30;;;;;;;;;;5046832;28;20100;-78
2021/06/09 13:51:03;;;;;;;4.18;3.78;;;;;;;;;;5038865;28;20044;-78
2021/06/09 13:53:32;;;;;;;6.40;3.90;;;;;;;;;;5036586;28;20044;-78
2021/06/09 13:55:58;;;;;;;7.63;3.70;;;;;;;;;;5036220;28;20041;-77
2021/06/09 13:58:25;;;;;;;8.45;3.97;;;;;;;;;;5036738;28;20037;-78
2021/06/09 14:00:57;;;;;;;5.63;3.85;;;;;;;;;;5039465;28;20379;-77
2021/06/09 14:03:25;;;;;;;4.18;3.72;;;;;;;;;;5046263;28;20037;-78
2021/06/09 14:05:51;;;;;;;5.28;4.05;;;;;;;;;;5050018;28;20467;-77
2021/06/09 14:08:19;;;;;;;6.60;4.57;;;;;;;;;;5055199;28;20064;-77
2021/06/09 14:10:49;;;;;;;7.57;4.13;;;;;;;;;;5053298;28;20033;-77
2021/06/09 14:13:18;;;;;;;9.55;4.70;;;;;;;;;;5054525;28;20417;-78
2021/06/09 14:15:54;;;;;;;5.82;4.75;;;;;;;;;;5055462;28;20033;-77
2021/06/09 14:18:19;;;;;;;;;;;;;;;;;;5055614;28;20467;-77
2021/06/09 14:20:50;;;;;;;4.45;4.00;;;;;;;;;;5055890;28;20016;-77
2021/06/09 14:23:25;;;;;;;5.03;4.03;;;;;;;;;;5055851;28;20048;-77
2021/06/09 14:25:57;;;;;;;5.35;3.80;;;;;;;;;;5054513;28;20063;-77
2021/06/09 14:28:31;;;;;;;5.03;3.67;;;;;;;;;;5053307;28;20031;-75
2021/06/09 14:31:00;;;;;;;8.75;4.63;;;;;;;;;;5053643;28;20474;-74
2021/06/09 14:38:41;;;;;;;3.95;3.50;;;;;;;;;;5053547;28;20040;-75
2021/06/09 14:41:29;;;;;;;4.65;3.50;;;;;;;;;;5053648;28;20041;-75
2021/06/09 14:44:37;;;;;;;5.20;3.70;;;;;;;;;;5052106;28;20172;-75
2021/06/09 14:47:19;;;;;;;5.07;3.42;;;;;;;;;;5030948;28;20037;-76
2021/06/09 14:50:00;;;;;;;3.53;3.20;;;;;;;;;;5050150;28;20099;-75